createdAt,value
2022-12-11T00:04:41.079Z,0.26
2022-12-11T00:09:43.655Z,-0.05
2022-12-11T00:14:46.244Z,-0.25
2022-12-11T00:19:49.028Z,-0.10
2022-12-11T00:24:51.873Z,-0.02
2022-12-11T00:29:55.084Z,-0.28
2022-12-11T00:34:58.197Z,-0.28
2022-12-11T00:40:00.799Z,0.13
2022-12-11T00:45:03.934Z,0.22
2022-12-11T00:50:07.312Z,0.02
2022-12-11T00:55:10.192Z,0.16
2022-12-11T01:00:13.614Z,0.28
2022-12-11T01:05:17.193Z,0.38
2022-12-11T01:10:25.828Z,0.25
2022-12-11T01:15:30.983Z,0.19
2022-12-11T01:20:33.631Z,0.38
2022-12-11T01:25:38.298Z,0.16
2022-12-11T01:30:43.817Z,0.24
2022-12-11T01:35:46.576Z,0.01
2022-12-11T01:40:51.478Z,0.00
2022-12-11T01:45:54.198Z,0.10
2022-12-11T01:51:00.279Z,0.12
2022-12-11T01:56:04.631Z,-0.01
2022-12-11T02:01:08.180Z,0.13
2022-12-11T02:06:37.326Z,0.06
2022-12-11T02:12:16.994Z,0.16
2022-12-11T02:17:34.609Z,-0.01
2022-12-11T02:22:39.747Z,-0.18
2022-12-11T02:27:47.989Z,-0.18
2022-12-11T02:32:56.562Z,-0.16
2022-12-11T02:38:05.239Z,-0.41
2022-12-11T02:43:11.775Z,-0.11
2022-12-11T02:48:17.755Z,-0.05
2022-12-11T02:53:24.090Z,-0.13
2022-12-11T02:58:31.435Z,-0.10
2022-12-11T03:03:34.044Z,-0.18
2022-12-11T03:08:36.664Z,-0.62
2022-12-11T03:13:42.636Z,-0.62
2022-12-11T03:18:45.211Z,-0.28
2022-12-11T03:24:12.106Z,-0.13
2022-12-11T03:29:20.800Z,-0.39
2022-12-11T03:34:29.878Z,-0.73
2022-12-11T03:39:37.828Z,-0.71
2022-12-11T03:44:44.219Z,-0.85
2022-12-11T03:49:48.813Z,-0.90
2022-12-11T03:54:52.658Z,-0.88
2022-12-11T03:59:55.396Z,-0.83
2022-12-11T04:04:58.006Z,-1.00
2022-12-11T04:10:00.759Z,-1.21
2022-12-11T04:15:03.715Z,-1.04
2022-12-11T04:20:29.619Z,-1.08
2022-12-11T04:25:32.111Z,-1.26
2022-12-11T04:30:34.680Z,-1.37
2022-12-11T04:35:37.905Z,-1.14
2022-12-11T04:40:40.442Z,-1.18
2022-12-11T04:45:42.943Z,-1.09
2022-12-11T04:50:46.259Z,-1.38
2022-12-11T04:55:49.191Z,-1.49
2022-12-11T05:00:52.007Z,-1.25
2022-12-11T05:05:56.292Z,-1.42
2022-12-11T05:11:01.502Z,-1.32
2022-12-11T05:16:09.473Z,-1.28
2022-12-11T05:21:14.153Z,-1.53
2022-12-11T05:26:19.279Z,-1.58
2022-12-11T05:31:24.707Z,-1.42
2022-12-11T05:36:31.769Z,-1.36
2022-12-11T05:41:34.430Z,-1.09
2022-12-11T05:46:37.095Z,-1.16
2022-12-11T05:51:39.764Z,-1.03
2022-12-11T05:56:42.515Z,-0.86
2022-12-11T06:01:45.194Z,-0.81
2022-12-11T06:06:48.022Z,-0.89
2022-12-11T06:11:50.579Z,-1.08
2022-12-11T06:16:53.657Z,-1.07
2022-12-11T06:21:56.358Z,-1.28
2022-12-11T06:26:59.368Z,-1.14
2022-12-11T06:32:02.159Z,-0.95
2022-12-11T06:37:05.494Z,-0.90
2022-12-11T06:42:08.131Z,-0.91
2022-12-11T06:47:10.837Z,-1.05
2022-12-11T06:52:18.158Z,-1.15
2022-12-11T06:57:22.309Z,-1.26
2022-12-11T07:02:24.995Z,-1.31
2022-12-11T07:07:27.751Z,-1.41
2022-12-11T07:12:30.383Z,-1.17
2022-12-11T07:17:33.058Z,-0.81
2022-12-11T07:22:35.678Z,-1.08
2022-12-11T07:27:38.274Z,-1.27
2022-12-11T07:32:40.925Z,-1.01
2022-12-11T07:37:45.046Z,-1.25
2022-12-11T07:42:47.598Z,-1.61
2022-12-11T07:47:50.318Z,-1.83
2022-12-11T07:52:52.914Z,-1.49
2022-12-11T07:57:55.417Z,-1.40
2022-12-11T08:02:58.086Z,-1.06
2022-12-11T08:08:00.871Z,-1.15
2022-12-11T08:13:03.628Z,-1.20
2022-12-11T08:18:06.255Z,-1.24
2022-12-11T08:23:08.855Z,-1.30
2022-12-11T08:28:11.394Z,-1.51
2022-12-11T08:33:14.005Z,-1.08
2022-12-11T08:38:22.221Z,-0.98
2022-12-11T08:43:27.732Z,-0.90
2022-12-11T08:48:30.263Z,-0.95
2022-12-11T08:53:33.500Z,-0.91
2022-12-11T08:58:37.941Z,-0.82
2022-12-11T09:03:42.419Z,-0.87
2022-12-11T09:08:51.997Z,-1.18
2022-12-11T09:13:55.626Z,-1.27
2022-12-11T09:19:00.467Z,-1.45
2022-12-11T09:24:03.642Z,-1.54
2022-12-11T09:29:07.250Z,-1.53
2022-12-11T09:34:12.795Z,-1.35
2022-12-11T09:39:18.051Z,-1.15
2022-12-11T09:44:41.487Z,-1.08
2022-12-11T09:49:46.347Z,-1.14
2022-12-11T09:55:13.709Z,-1.23
2022-12-11T10:00:21.224Z,-0.99
2022-12-11T10:06:04.803Z,-1.01
2022-12-11T10:11:19.607Z,-0.99
2022-12-11T10:16:43.830Z,-1.25
2022-12-11T10:21:47.297Z,-1.31
2022-12-11T10:26:58.622Z,-1.61
2022-12-11T10:32:02.242Z,-1.70
2022-12-11T10:37:04.894Z,-1.62
2022-12-11T10:42:19.443Z,-1.64
2022-12-11T10:47:22.027Z,-1.74
2022-12-11T10:52:28.494Z,-1.71
2022-12-11T10:57:36.069Z,-1.79
2022-12-11T11:02:40.954Z,-1.75
2022-12-11T11:07:44.020Z,-1.73
2022-12-11T11:12:50.476Z,-1.74
2022-12-11T11:17:56.321Z,-1.78
2022-12-11T11:23:11.637Z,-1.69
2022-12-11T11:28:21.381Z,-1.79
2022-12-11T11:33:24.627Z,-1.93
2022-12-11T11:38:35.849Z,-1.86
2022-12-11T11:43:47.154Z,-1.90
2022-12-11T11:49:06.362Z,-1.90
2022-12-11T11:54:35.562Z,-1.90
2022-12-11T11:59:49.370Z,-2.31
2022-12-11T12:04:53.242Z,-1.82
2022-12-11T12:10:09.756Z,-1.91
2022-12-11T12:15:27.406Z,-1.88
2022-12-11T12:20:35.587Z,-1.77
2022-12-11T12:25:56.609Z,-1.79
2022-12-11T12:31:32.638Z,-1.90
2022-12-11T12:37:00.367Z,-1.92
2022-12-11T12:42:34.688Z,-1.87
2022-12-11T12:47:38.080Z,-1.96
2022-12-11T12:52:41.536Z,-1.86
2022-12-11T12:57:53.910Z,-1.99
2022-12-11T13:02:58.391Z,-2.19
2022-12-11T13:08:05.941Z,-2.13
2022-12-11T13:13:51.564Z,-2.03
2022-12-11T13:18:57.643Z,-1.90
2022-12-11T13:24:21.786Z,-1.82
2022-12-11T13:29:38.160Z,-1.93
2022-12-11T13:34:44.341Z,-2.12
2022-12-11T13:39:47.294Z,-2.14
2022-12-11T13:44:50.388Z,-2.20
2022-12-11T13:50:23.160Z,-2.11
2022-12-11T13:55:28.574Z,-2.10
2022-12-11T14:00:32.983Z,-2.24
2022-12-11T14:05:36.696Z,-2.14
2022-12-11T14:10:40.092Z,-2.18
2022-12-11T14:15:45.202Z,-2.12
2022-12-11T14:20:55.502Z,-2.03
2022-12-11T14:25:59.979Z,-2.20
2022-12-11T14:31:05.213Z,-2.12
2022-12-11T14:36:08.558Z,-2.08
2022-12-11T14:41:22.055Z,-2.09
2022-12-11T14:46:40.312Z,-1.96
2022-12-11T14:51:43.443Z,-1.81
2022-12-11T14:56:47.207Z,-1.73
2022-12-11T15:02:21.004Z,-1.68
2022-12-11T15:07:24.662Z,-1.67
2022-12-11T15:12:27.380Z,-1.62
2022-12-11T15:17:30.853Z,-1.63
2022-12-11T15:22:34.737Z,-1.57
2022-12-11T15:27:39.492Z,-1.63
2022-12-11T15:32:42.031Z,-1.99
2022-12-11T15:37:53.943Z,-1.93
2022-12-11T15:42:56.979Z,-1.77
2022-12-11T15:47:59.639Z,-1.69
2022-12-11T15:53:02.198Z,-1.66
2022-12-11T15:58:14.037Z,-1.61
2022-12-11T16:03:19.088Z,-1.61
2022-12-11T16:08:23.842Z,-1.54
2022-12-11T16:13:26.643Z,-1.84
2022-12-11T16:18:29.228Z,-1.66
2022-12-11T16:23:32.347Z,-1.55
2022-12-11T16:28:34.931Z,-1.66
2022-12-11T16:33:37.460Z,-1.63
2022-12-11T16:38:40.080Z,-1.56
2022-12-11T16:43:42.843Z,-1.64
2022-12-11T16:48:45.704Z,-1.53
2022-12-11T16:53:48.539Z,-1.51
2022-12-11T16:58:51.322Z,-1.66
2022-12-11T17:03:54.036Z,-1.52
2022-12-11T17:08:57.093Z,-1.42
2022-12-11T17:14:00.409Z,-1.47
2022-12-11T17:19:05.406Z,-1.43
2022-12-11T17:24:10.984Z,-1.31
2022-12-11T17:29:14.076Z,-1.27
2022-12-11T17:34:16.678Z,-1.19
2022-12-11T17:39:19.300Z,-1.11
2022-12-11T17:44:21.894Z,-1.15
2022-12-11T17:49:24.761Z,-1.17
2022-12-11T17:54:27.623Z,-0.95
2022-12-11T17:59:30.234Z,-0.88
2022-12-11T18:04:32.914Z,-0.72
2022-12-11T18:09:38.738Z,-0.86
2022-12-11T18:14:41.452Z,-0.67
2022-12-11T18:19:46.265Z,-0.55
2022-12-11T18:24:50.466Z,-0.42
2022-12-11T18:29:52.932Z,-0.61
2022-12-11T18:34:55.432Z,-0.49
2022-12-11T18:39:58.256Z,-0.41
2022-12-11T18:45:01.755Z,-0.49
2022-12-11T18:50:08.400Z,-0.39
2022-12-11T18:55:11.327Z,-0.38
2022-12-11T19:00:15.093Z,-0.43
2022-12-11T19:05:18.189Z,-0.46
2022-12-11T19:10:21.475Z,-0.35
2022-12-11T19:15:24.492Z,-0.38
2022-12-11T19:25:50.827Z,-0.32
2022-12-11T19:30:53.394Z,-0.28
2022-12-11T19:36:12.746Z,-0.19
2022-12-11T19:41:23.887Z,-0.21
2022-12-11T19:46:28.654Z,-0.19
2022-12-11T19:51:38.626Z,0.09
2022-12-11T19:56:41.485Z,-0.12
2022-12-11T20:01:45.089Z,-0.04
2022-12-11T20:06:48.063Z,0.29
2022-12-11T20:11:51.473Z,0.04
2022-12-11T20:17:13.943Z,0.15
2022-12-11T20:22:17.262Z,0.14
2022-12-11T20:27:19.854Z,0.24
2022-12-11T20:32:22.399Z,0.31
2022-12-11T20:37:26.088Z,0.51
2022-12-11T20:42:28.594Z,0.43
2022-12-11T20:47:31.236Z,0.46
2022-12-11T20:52:34.973Z,0.21
2022-12-11T20:57:43.383Z,0.38
2022-12-11T21:02:50.060Z,0.31
2022-12-11T21:07:54.472Z,0.61
2022-12-11T21:12:57.082Z,0.63
2022-12-11T21:17:59.631Z,0.71
2022-12-11T21:23:03.159Z,0.77
2022-12-11T21:28:05.919Z,0.66
2022-12-11T21:33:08.649Z,0.84
2022-12-11T21:38:11.228Z,1.00
2022-12-11T21:43:13.779Z,1.08
2022-12-11T21:48:16.329Z,0.98
2022-12-11T21:53:19.054Z,1.22
2022-12-11T21:58:21.610Z,1.34
2022-12-11T22:03:24.223Z,1.18
2022-12-11T22:08:26.950Z,1.24
2022-12-11T22:13:29.569Z,1.28
2022-12-11T22:18:32.097Z,1.21
2022-12-11T22:23:34.679Z,1.41
2022-12-11T22:28:38.283Z,1.28
2022-12-11T22:33:41.223Z,1.41
2022-12-11T22:38:44.023Z,1.51
2022-12-11T22:43:46.932Z,1.49
2022-12-11T22:48:49.609Z,1.52
2022-12-11T22:53:52.236Z,1.64
2022-12-11T22:58:56.247Z,1.57
2022-12-11T23:03:58.887Z,1.64
2022-12-11T23:09:01.849Z,1.64
2022-12-11T23:14:05.952Z,1.78
2022-12-11T23:19:09.352Z,1.85
2022-12-11T23:24:12.147Z,1.80
2022-12-11T23:29:15.410Z,1.97
2022-12-11T23:34:18.026Z,2.06
2022-12-11T23:39:20.584Z,2.17
2022-12-11T23:44:23.799Z,2.13
2022-12-11T23:49:26.363Z,2.20
2022-12-11T23:54:28.950Z,2.20
2022-12-11T23:59:31.475Z,2.01
